Time;durP1;ratioP1;P1;durP2;ratioP2;P2;SDS_P1;SDS_P2;PMS_P1;PMS_P2;Temp;Humidity;BMP_temperature;BMP_pressure;BME280_temperature;BME280_humidity;BME280_pressure;Samples;Min_cycle;Max_cycle;Signal;HPM_P1;HPM_P2
2023/09/11 00:02:06;;;;;;;0.20;0.20;;;22.30;99.90;;;;;;5027971;28;20601;-80
2023/09/11 00:04:32;;;;;;;0.20;0.20;;;22.30;99.90;;;;;;5022327;28;20133;-77
2023/09/11 00:06:58;;;;;;;0.20;0.20;;;22.20;99.90;;;;;;5030384;28;20404;-78
2023/09/11 00:09:24;;;;;;;0.20;0.20;;;22.20;99.90;;;;;;5030552;28;20053;-80
2023/09/11 00:11:50;;;;;;;0.20;0.20;;;22.20;99.90;;;;;;5029829;28;20469;-78
2023/09/11 00:14:16;;;;;;;0.20;0.20;;;22.20;99.90;;;;;;5027548;28;20103;-78
2023/09/11 00:16:41;;;;;;;0.20;0.20;;;22.10;99.90;;;;;;5027708;28;20045;-78
2023/09/11 00:19:09;;;;;;;0.20;0.20;;;22.10;99.90;;;;;;5028326;28;20076;-78
2023/09/11 00:21:35;;;;;;;0.20;0.20;;;22.10;99.90;;;;;;5024224;28;20469;-81
2023/09/11 00:24:00;;;;;;;0.20;0.20;;;22.00;99.90;;;;;;5027261;28;20064;-78
2023/09/11 00:26:26;;;;;;;0.20;0.20;;;22.00;99.90;;;;;;5022194;28;20485;-78
2023/09/11 00:28:52;;;;;;;0.20;0.20;;;22.00;99.90;;;;;;5029892;28;20439;-78
2023/09/11 00:31:17;;;;;;;0.20;0.20;;;22.00;99.90;;;;;;5029253;28;20551;-78
2023/09/11 00:33:44;;;;;;;0.20;0.20;;;22.00;99.90;;;;;;5030491;28;20544;-78
2023/09/11 00:36:09;;;;;;;0.20;0.20;;;21.90;99.90;;;;;;5029157;28;20053;-78
2023/09/11 00:38:35;;;;;;;0.20;0.20;;;21.90;99.90;;;;;;5028636;28;20045;-80
2023/09/11 00:41:01;;;;;;;0.20;0.20;;;21.90;99.90;;;;;;5030044;28;20187;-79
2023/09/11 00:43:26;;;;;;;0.20;0.20;;;21.90;99.90;;;;;;5027080;28;20049;-79
2023/09/11 00:45:55;;;;;;;0.20;0.20;;;21.90;99.90;;;;;;5028127;28;20049;-79
2023/09/11 00:48:21;;;;;;;0.20;0.20;;;21.90;99.90;;;;;;5029978;28;20033;-79
2023/09/11 00:50:47;;;;;;;0.20;0.20;;;21.80;99.90;;;;;;5030595;28;20073;-79
2023/09/11 00:53:13;;;;;;;0.20;0.20;;;21.80;99.90;;;;;;5025442;28;20128;-79
2023/09/11 00:55:39;;;;;;;0.20;0.20;;;21.80;99.90;;;;;;5025880;28;20131;-79
2023/09/11 00:58:07;;;;;;;0.20;0.20;;;21.80;99.90;;;;;;5025981;28;20124;-79
2023/09/11 01:00:33;;;;;;;0.20;0.20;;;21.80;99.90;;;;;;5023412;28;20044;-79
2023/09/11 01:02:58;;;;;;;0.20;0.20;;;21.80;99.90;;;;;;5025040;28;20050;-79
2023/09/11 01:05:28;;;;;;;0.20;0.20;;;21.70;99.90;;;;;;5028261;28;20048;-79
2023/09/11 01:07:54;;;;;;;0.20;0.20;;;21.70;99.90;;;;;;5025375;28;20085;-79
2023/09/11 01:10:20;;;;;;;0.20;0.20;;;21.70;99.90;;;;;;5029910;28;20077;-79
2023/09/11 01:12:46;;;;;;;0.20;0.20;;;21.70;99.90;;;;;;5026691;28;20136;-79
2023/09/11 01:15:11;;;;;;;0.20;0.20;;;21.60;99.90;;;;;;5025073;28;20538;-79
2023/09/11 01:17:52;;;;;;;0.20;0.20;;;21.60;99.90;;;;;;5027953;28;20152;-79
2023/09/11 01:20:38;;;;;;;0.10;0.10;;;21.60;99.90;;;;;;5027624;28;20053;-80
2023/09/11 01:23:35;;;;;;;0.20;0.20;;;21.60;99.90;;;;;;5026351;28;20513;-79
2023/09/11 01:26:20;;;;;;;0.20;0.20;;;21.50;99.90;;;;;;5025142;28;20048;-79
2023/09/11 01:29:12;;;;;;;0.20;0.20;;;21.50;99.90;;;;;;5019902;28;20048;-79
2023/09/11 01:31:42;;;;;;;0.20;0.20;;;21.50;99.90;;;;;;5025624;28;20060;-79
2023/09/11 01:34:08;;;;;;;0.20;0.20;;;21.50;99.90;;;;;;5027797;28;20246;-79
2023/09/11 01:36:33;;;;;;;0.20;0.20;;;21.50;99.90;;;;;;5026212;28;20079;-79
2023/09/11 01:39:00;;;;;;;0.20;0.20;;;21.40;99.90;;;;;;5027330;28;20196;-80
2023/09/11 01:41:31;;;;;;;0.20;0.20;;;21.40;99.90;;;;;;5023498;28;20492;-79
2023/09/11 01:44:04;;;;;;;0.28;0.28;;;21.40;99.90;;;;;;5023878;28;20034;-79
2023/09/11 01:46:29;;;;;;;0.20;0.20;;;21.40;99.90;;;;;;5026330;28;20071;-79
2023/09/11 01:48:57;;;;;;;0.20;0.20;;;21.40;99.90;;;;;;5029168;28;20105;-79
2023/09/11 01:51:24;;;;;;;0.20;0.20;;;21.40;99.90;;;;;;5028768;28;20144;-79
2023/09/11 01:53:50;;;;;;;0.20;0.20;;;21.30;99.90;;;;;;5023975;28;20033;-79
2023/09/11 01:56:16;;;;;;;0.20;0.20;;;21.30;99.90;;;;;;5025535;28;20050;-79
2023/09/11 01:58:43;;;;;;;0.20;0.20;;;21.30;99.90;;;;;;5028806;28;20060;-79
2023/09/11 02:01:09;;;;;;;0.20;0.20;;;21.30;99.90;;;;;;5025208;28;20049;-80
2023/09/11 02:03:35;;;;;;;0.20;0.20;;;21.30;99.90;;;;;;5021959;28;20052;-79
2023/09/11 02:06:00;;;;;;;0.20;0.20;;;21.30;99.90;;;;;;5021634;28;21239;-79
2023/09/11 02:08:26;;;;;;;0.20;0.20;;;21.30;99.90;;;;;;5022934;28;20037;-79
2023/09/11 02:10:53;;;;;;;0.20;0.20;;;21.20;99.90;;;;;;5028487;28;20057;-79
2023/09/11 02:13:19;;;;;;;0.20;0.20;;;21.20;99.90;;;;;;5024292;28;20124;-79
2023/09/11 02:15:45;;;;;;;0.20;0.20;;;21.20;99.90;;;;;;5029316;28;20541;-79
2023/09/11 02:18:11;;;;;;;0.13;0.13;;;21.20;99.90;;;;;;5036482;28;20076;-79
2023/09/11 02:20:36;;;;;;;0.20;0.20;;;21.20;99.90;;;;;;5027264;28;20045;-79
2023/09/11 02:23:02;;;;;;;0.20;0.20;;;21.20;99.90;;;;;;5018118;28;20087;-79
2023/09/11 02:25:28;;;;;;;0.20;0.20;;;21.20;99.90;;;;;;5026626;28;20148;-79
2023/09/11 02:27:54;;;;;;;0.20;0.20;;;21.10;99.90;;;;;;5024135;28;20044;-79
2023/09/11 02:30:19;;;;;;;0.20;0.20;;;21.10;99.90;;;;;;5026040;28;20064;-79
2023/09/11 02:32:47;;;;;;;0.20;0.20;;;21.10;99.90;;;;;;5026859;28;20451;-79
2023/09/11 02:35:13;;;;;;;0.10;0.10;;;21.10;99.90;;;;;;5028972;28;20095;-79
2023/09/11 02:37:38;;;;;;;0.20;0.20;;;21.00;99.90;;;;;;5024619;28;20060;-79
2023/09/11 02:40:06;;;;;;;0.20;0.20;;;21.10;99.90;;;;;;5023308;28;20512;-79
2023/09/11 02:42:32;;;;;;;0.20;0.20;;;21.10;99.90;;;;;;5022547;28;20057;-79
2023/09/11 02:44:57;;;;;;;0.20;0.20;;;21.00;99.90;;;;;;5027246;28;20132;-80
2023/09/11 02:47:23;;;;;;;0.20;0.20;;;21.00;99.90;;;;;;5025921;28;20044;-79
2023/09/11 02:49:49;;;;;;;0.20;0.20;;;21.00;99.90;;;;;;5025726;28;20533;-79
2023/09/11 02:52:14;;;;;;;0.20;0.20;;;21.00;99.90;;;;;;5021874;28;20397;-79
2023/09/11 02:54:40;;;;;;;0.20;0.20;;;21.00;99.90;;;;;;5022896;28;20051;-80
2023/09/11 02:57:05;;;;;;;0.20;0.20;;;21.00;99.90;;;;;;5026709;28;20068;-79
2023/09/11 02:59:34;;;;;;;0.10;0.10;;;20.90;99.90;;;;;;5023439;28;20065;-80
2023/09/11 03:02:00;;;;;;;0.20;0.20;;;20.90;99.90;;;;;;5024500;28;20049;-79
2023/09/11 03:04:26;;;;;;;0.20;0.20;;;20.90;99.90;;;;;;5022233;28;20512;-79
2023/09/11 03:06:51;;;;;;;0.20;0.20;;;20.90;99.90;;;;;;5031540;28;20049;-79
2023/09/11 03:09:17;;;;;;;0.20;0.20;;;20.80;99.90;;;;;;5028346;28;20041;-79
2023/09/11 03:11:43;;;;;;;0.20;0.20;;;20.80;99.90;;;;;;5024714;28;20033;-79
2023/09/11 03:14:11;;;;;;;0.20;0.20;;;20.80;99.90;;;;;;5028191;28;20045;-79
2023/09/11 03:16:43;;;;;;;0.20;0.20;;;20.80;99.90;;;;;;5028223;28;20160;-79
2023/09/11 03:19:09;;;;;;;0.20;0.20;;;20.80;99.90;;;;;;5032536;28;20639;-79
2023/09/11 03:21:35;;;;;;;0.20;0.20;;;20.80;99.90;;;;;;5022812;28;20045;-79
2023/09/11 03:24:00;;;;;;;0.20;0.20;;;20.70;99.90;;;;;;5030156;28;20133;-79
2023/09/11 03:26:26;;;;;;;0.10;0.10;;;20.70;99.90;;;;;;5031820;28;20038;-79
2023/09/11 03:28:52;;;;;;;0.20;0.20;;;20.70;99.90;;;;;;5031464;28;20117;-79
2023/09/11 03:31:18;;;;;;;0.20;0.20;;;20.70;99.90;;;;;;5029199;28;20049;-79
2023/09/11 03:33:44;;;;;;;0.20;0.20;;;20.60;99.90;;;;;;5024668;28;20041;-79
2023/09/11 03:36:16;;;;;;;0.20;0.20;;;20.60;99.90;;;;;;5030512;28;20543;-79
2023/09/11 03:38:42;;;;;;;0.20;0.20;;;20.60;99.90;;;;;;5029950;28;20528;-79
2023/09/11 03:41:09;;;;;;;0.22;0.22;;;20.50;99.90;;;;;;5030413;28;20053;-80
2023/09/11 03:43:35;;;;;;;0.20;0.20;;;20.50;99.90;;;;;;5029325;28;20041;-79
2023/09/11 03:46:01;;;;;;;0.20;0.20;;;20.40;99.90;;;;;;5030814;28;20076;-80
2023/09/11 03:48:27;;;;;;;0.20;0.20;;;20.40;99.90;;;;;;5028729;28;20079;-79
2023/09/11 03:50:52;;;;;;;0.20;0.20;;;20.40;99.90;;;;;;5027863;28;20507;-79
2023/09/11 03:53:18;;;;;;;0.20;0.20;;;20.40;99.90;;;;;;5022546;28;20045;-79
2023/09/11 03:55:44;;;;;;;0.20;0.20;;;20.40;99.90;;;;;;5030424;28;20057;-80
2023/09/11 03:58:11;;;;;;;0.20;0.20;;;20.40;99.90;;;;;;5030788;28;20365;-79
2023/09/11 04:00:36;;;;;;;0.30;0.30;;;20.40;99.90;;;;;;5030583;28;20631;-79
2023/09/11 04:03:03;;;;;;;0.20;0.20;;;20.40;99.90;;;;;;5028521;28;20084;-79
2023/09/11 04:05:29;;;;;;;0.20;0.20;;;20.40;99.90;;;;;;5027275;28;20041;-79
2023/09/11 04:07:55;;;;;;;0.20;0.20;;;20.40;99.90;;;;;;5019599;28;20034;-80
2023/09/11 04:10:21;;;;;;;0.22;0.22;;;20.40;99.90;;;;;;5029634;28;20034;-80
2023/09/11 04:12:46;;;;;;;0.20;0.20;;;20.40;99.90;;;;;;5029220;28;20045;-79
2023/09/11 04:15:12;;;;;;;0.20;0.20;;;20.30;99.90;;;;;;5029455;28;20037;-79
2023/09/11 04:17:38;;;;;;;0.20;0.20;;;20.30;99.90;;;;;;5027799;28;20046;-80
2023/09/11 04:20:05;;;;;;;0.20;0.20;;;20.40;99.90;;;;;;5028183;28;20049;-79
2023/09/11 04:22:30;;;;;;;0.20;0.20;;;20.30;99.90;;;;;;5021879;28;20113;-79
2023/09/11 04:24:56;;;;;;;0.20;0.20;;;20.30;99.90;;;;;;5024912;28;20079;-79
2023/09/11 04:27:22;;;;;;;0.20;0.20;;;20.30;99.90;;;;;;5024536;28;20640;-80
2023/09/11 04:29:47;;;;;;;0.20;0.20;;;20.30;99.90;;;;;;5029925;28;20429;-79
2023/09/11 04:32:13;;;;;;;0.17;0.17;;;20.30;99.90;;;;;;5024860;28;20077;-79
2023/09/11 04:34:39;;;;;;;0.10;0.10;;;20.30;99.90;;;;;;5027392;28;20041;-79
2023/09/11 04:37:04;;;;;;;0.10;0.10;;;20.60;99.90;;;;;;5028196;28;20053;-79
2023/09/11 04:39:30;;;;;;;0.20;0.20;;;20.30;99.90;;;;;;5029696;28;20543;-80
2023/09/11 04:41:56;;;;;;;0.20;0.20;;;20.20;99.90;;;;;;5029234;28;20530;-79
2023/09/11 04:44:21;;;;;;;0.20;0.20;;;20.20;99.90;;;;;;5030420;28;20069;-79
2023/09/11 04:46:47;;;;;;;0.20;0.20;;;20.20;99.90;;;;;;5028572;28;20172;-79
2023/09/11 04:49:12;;;;;;;0.20;0.20;;;20.20;99.90;;;;;;5030498;28;20049;-79
2023/09/11 04:51:38;;;;;;;0.20;0.20;;;20.20;99.90;;;;;;5028969;28;20042;-79
2023/09/11 04:54:04;;;;;;;0.20;0.20;;;20.20;99.90;;;;;;5013548;28;20045;-79
2023/09/11 04:56:29;;;;;;;0.20;0.20;;;20.10;99.90;;;;;;5027068;28;20397;-79
2023/09/11 04:58:55;;;;;;;0.20;0.20;;;20.10;99.90;;;;;;5028021;28;20048;-79
2023/09/11 05:01:21;;;;;;;0.10;0.10;;;20.10;99.90;;;;;;5026954;28;20045;-79
2023/09/11 05:03:46;;;;;;;0.20;0.20;;;20.10;99.90;;;;;;5027906;28;20484;-79
2023/09/11 05:06:12;;;;;;;0.20;0.20;;;20.10;99.90;;;;;;5020321;28;20383;-79
2023/09/11 05:08:38;;;;;;;0.20;0.20;;;20.10;99.90;;;;;;5025859;28;20453;-79
2023/09/11 05:11:03;;;;;;;0.20;0.20;;;20.10;99.90;;;;;;5028584;28;20445;-79
2023/09/11 05:13:29;;;;;;;0.20;0.20;;;20.10;99.90;;;;;;5018112;28;20458;-79
2023/09/11 05:15:55;;;;;;;0.20;0.20;;;20.10;99.90;;;;;;5015822;28;20041;-80
2023/09/11 05:18:23;;;;;;;0.10;0.10;;;20.10;99.90;;;;;;5030150;28;20048;-79
2023/09/11 05:20:50;;;;;;;0.20;0.20;;;20.10;99.90;;;;;;5024548;28;20042;-79
2023/09/11 05:23:17;;;;;;;0.20;0.20;;;20.10;99.90;;;;;;5027226;28;20049;-79
2023/09/11 05:25:43;;;;;;;0.20;0.20;;;20.10;99.90;;;;;;5028352;28;20037;-79
2023/09/11 05:28:09;;;;;;;0.20;0.20;;;20.10;99.90;;;;;;5024392;28;20037;-79
2023/09/11 05:30:34;;;;;;;0.20;0.20;;;20.10;99.90;;;;;;5027147;28;20051;-79
2023/09/11 05:33:00;;;;;;;0.10;0.10;;;20.10;99.90;;;;;;5024468;28;20054;-79
2023/09/11 05:35:26;;;;;;;0.10;0.10;;;20.10;99.90;;;;;;5028261;28;20045;-80
2023/09/11 05:37:51;;;;;;;0.20;0.20;;;20.10;99.90;;;;;;5026056;28;20045;-79
2023/09/11 05:40:17;;;;;;;0.10;0.10;;;20.10;99.90;;;;;;5024632;28;20140;-79
2023/09/11 05:42:43;;;;;;;0.20;0.20;;;20.10;99.90;;;;;;5028348;28;20071;-79
2023/09/11 05:45:09;;;;;;;0.10;0.10;;;20.10;99.90;;;;;;5029196;28;20124;-79
2023/09/11 05:47:36;;;;;;;0.20;0.20;;;20.10;99.90;;;;;;5020327;28;20461;-80
2023/09/11 05:50:04;;;;;;;0.20;0.20;;;20.10;99.90;;;;;;5028677;28;20041;-80
2023/09/11 05:52:30;;;;;;;0.20;0.20;;;20.10;99.90;;;;;;5025836;28;20041;-79
2023/09/11 05:54:56;;;;;;;0.20;0.20;;;20.10;99.90;;;;;;5025920;28;20056;-80
2023/09/11 05:57:23;;;;;;;0.20;0.20;;;20.10;99.90;;;;;;5028939;28;20412;-79
2023/09/11 05:59:48;;;;;;;0.20;0.20;;;20.10;99.90;;;;;;5027580;28;20121;-79
2023/09/11 06:02:14;;;;;;;0.20;0.20;;;20.10;99.90;;;;;;5025087;28;20136;-79
2023/09/11 06:04:40;;;;;;;0.20;0.20;;;20.10;99.90;;;;;;5025161;28;20480;-79
2023/09/11 06:07:05;;;;;;;0.20;0.20;;;20.10;99.90;;;;;;5026096;28;20084;-80
2023/09/11 06:09:31;;;;;;;0.20;0.20;;;20.20;99.90;;;;;;5026697;28;20591;-79
2023/09/11 06:11:57;;;;;;;0.20;0.20;;;20.20;99.90;;;;;;5027181;28;20038;-79
2023/09/11 06:14:23;;;;;;;0.20;0.20;;;20.20;99.90;;;;;;5026039;28;20038;-79
2023/09/11 06:16:50;;;;;;;0.17;0.17;;;20.20;99.90;;;;;;5023486;28;20065;-79
2023/09/11 06:19:16;;;;;;;0.20;0.20;;;20.30;99.90;;;;;;5027027;28;20071;-79
2023/09/11 06:21:45;;;;;;;0.20;0.20;;;20.40;99.90;;;;;;5027074;28;20476;-80
2023/09/11 06:24:11;;;;;;;0.20;0.20;;;20.50;99.90;;;;;;5023290;28;20080;-83
2023/09/11 06:26:37;;;;;;;0.20;0.20;;;20.50;99.90;;;;;;5022519;28;20054;-82
2023/09/11 06:29:03;;;;;;;0.20;0.20;;;20.60;99.90;;;;;;5026435;28;20041;-82
2023/09/11 06:31:30;;;;;;;0.20;0.20;;;20.60;99.90;;;;;;5021479;28;20037;-79
2023/09/11 06:33:56;;;;;;;0.20;0.20;;;20.60;99.90;;;;;;5013430;28;20042;-81
2023/09/11 06:36:22;;;;;;;0.20;0.20;;;20.60;99.90;;;;;;5019958;28;20148;-81
2023/09/11 06:38:47;;;;;;;0.20;0.20;;;20.60;99.90;;;;;;5018886;28;20052;-83
2023/09/11 06:41:13;;;;;;;0.20;0.20;;;20.70;99.90;;;;;;5022230;28;20099;-82
2023/09/11 06:43:39;;;;;;;0.10;0.10;;;20.70;99.90;;;;;;5031552;28;20097;-82
2023/09/11 06:46:04;;;;;;;0.20;0.20;;;20.70;99.90;;;;;;5029706;28;20045;-83
2023/09/11 06:48:30;;;;;;;0.13;0.13;;;20.70;99.90;;;;;;5032334;28;20040;-83
2023/09/11 06:50:56;;;;;;;0.20;0.20;;;20.80;99.90;;;;;;5029610;28;20128;-84
2023/09/11 06:53:21;;;;;;;0.20;0.20;;;20.80;99.90;;;;;;5028569;28;20084;-81
2023/09/11 06:55:48;;;;;;;0.20;0.20;;;20.80;99.90;;;;;;5031426;28;20153;-82
2023/09/11 06:58:14;;;;;;;0.20;0.20;;;20.80;99.90;;;;;;5025294;28;20645;-82
2023/09/11 07:00:40;;;;;;;0.20;0.20;;;20.90;99.90;;;;;;5026331;28;20045;-83
2023/09/11 07:03:06;;;;;;;0.20;0.20;;;20.90;99.90;;;;;;5027531;28;20124;-84
2023/09/11 07:05:32;;;;;;;0.20;0.20;;;21.00;99.90;;;;;;5031784;28;20378;-84
2023/09/11 07:07:58;;;;;;;0.20;0.20;;;21.00;99.90;;;;;;5023561;28;20034;-83
2023/09/11 07:10:25;;;;;;;0.20;0.20;;;21.00;99.90;;;;;;5029357;28;20042;-85
2023/09/11 07:12:50;;;;;;;0.20;0.20;;;21.10;99.90;;;;;;5026352;28;20116;-84
2023/09/11 07:15:19;;;;;;;0.20;0.20;;;21.10;99.90;;;;;;5029690;28;20598;-83
2023/09/11 07:17:47;;;;;;;0.20;0.20;;;21.20;99.90;;;;;;5021448;28;20546;-81
2023/09/11 07:20:13;;;;;;;0.20;0.20;;;21.20;99.90;;;;;;5028850;28;20046;-82
2023/09/11 07:22:38;;;;;;;0.15;0.15;;;21.30;99.90;;;;;;5016687;28;20493;-83
2023/09/11 07:25:11;;;;;;;0.20;0.20;;;21.40;99.90;;;;;;5029173;28;20049;-83
2023/09/11 07:27:37;;;;;;;0.20;0.20;;;21.40;99.90;;;;;;5030960;28;20176;-82
2023/09/11 07:30:03;;;;;;;0.20;0.20;;;21.50;99.90;;;;;;5026984;28;20034;-81
2023/09/11 07:32:30;;;;;;;0.20;0.20;;;21.60;99.90;;;;;;5023339;28;20068;-81
2023/09/11 07:34:56;;;;;;;0.20;0.20;;;21.70;99.90;;;;;;5029096;28;20649;-81
2023/09/11 07:37:22;;;;;;;0.20;0.20;;;21.80;99.90;;;;;;5029074;28;20167;-83
2023/09/11 07:39:48;;;;;;;0.20;0.20;;;21.90;99.90;;;;;;5030596;28;20116;-84
2023/09/11 07:42:13;;;;;;;0.20;0.20;;;22.00;99.90;;;;;;5024339;28;20068;-83
2023/09/11 07:44:39;;;;;;;0.50;0.50;;;22.00;99.90;;;;;;5031177;28;20091;-83
2023/09/11 07:47:05;;;;;;;0.20;0.20;;;22.10;99.90;;;;;;5028589;28;20135;-83
2023/09/11 07:49:30;;;;;;;0.20;0.20;;;22.20;99.90;;;;;;5025629;28;20037;-82
2023/09/11 07:51:56;;;;;;;0.20;0.20;;;22.30;99.90;;;;;;5023005;28;20053;-80
2023/09/11 07:54:22;;;;;;;0.20;0.20;;;22.40;99.90;;;;;;5024945;28;20093;-80
2023/09/11 07:56:47;;;;;;;0.20;0.20;;;22.50;99.90;;;;;;5029482;28;20403;-79
2023/09/11 07:59:13;;;;;;;0.20;0.20;;;22.60;99.90;;;;;;5011415;28;20441;-79
2023/09/11 08:01:39;;;;;;;0.20;0.20;;;22.60;99.90;;;;;;5019171;28;20045;-79
2023/09/11 08:04:05;;;;;;;0.20;0.20;;;22.80;99.90;;;;;;5028277;28;20053;-80
2023/09/11 08:06:31;;;;;;;0.20;0.20;;;22.90;99.90;;;;;;5030518;28;20046;-80
2023/09/11 08:09:03;;;;;;;0.20;0.20;;;23.00;99.90;;;;;;5024924;28;20038;-80
2023/09/11 08:11:29;;;;;;;0.20;0.20;;;23.10;99.90;;;;;;5026419;28;20038;-80
2023/09/11 08:13:58;;;;;;;0.20;0.20;;;23.30;99.90;;;;;;5017250;28;20096;-80
2023/09/11 08:16:24;;;;;;;0.20;0.20;;;23.40;99.90;;;;;;5030301;28;20045;-80
2023/09/11 08:18:49;;;;;;;0.20;0.20;;;23.40;99.90;;;;;;5028835;28;20044;-79
2023/09/11 08:21:16;;;;;;;0.20;0.20;;;23.60;99.90;;;;;;5028182;28;20072;-80
2023/09/11 08:23:43;;;;;;;0.20;0.20;;;23.70;99.90;;;;;;5031092;28;20099;-79
2023/09/11 08:26:09;;;;;;;0.25;0.22;;;23.70;99.90;;;;;;5025380;28;20053;-79
2023/09/11 08:28:35;;;;;;;0.20;0.20;;;23.80;99.90;;;;;;5028078;28;20046;-79
2023/09/11 08:31:02;;;;;;;0.20;0.20;;;23.90;99.90;;;;;;5027238;28;20041;-80
2023/09/11 08:33:27;;;;;;;0.20;0.20;;;24.00;99.90;;;;;;5029184;28;20045;-79
2023/09/11 08:35:53;;;;;;;0.20;0.20;;;24.10;99.90;;;;;;5030204;28;20484;-79
2023/09/11 08:38:19;;;;;;;0.25;0.25;;;24.20;99.90;;;;;;5027281;28;20044;-79
2023/09/11 08:40:44;;;;;;;0.20;0.20;;;24.30;99.90;;;;;;5027942;28;20053;-79
2023/09/11 08:43:11;;;;;;;0.20;0.20;;;24.30;99.90;;;;;;5029768;28;20488;-79
2023/09/11 08:45:38;;;;;;;0.20;0.20;;;24.50;99.90;;;;;;5030713;28;20558;-79
2023/09/11 08:48:10;;;;;;;0.20;0.20;;;24.60;99.90;;;;;;5029890;28;20053;-81
2023/09/11 08:50:57;;;;;;;0.20;0.20;;;24.70;99.90;;;;;;5022628;28;20038;-80
2023/09/11 08:53:24;;;;;;;0.20;0.20;;;24.80;99.90;;;;;;5027144;28;20049;-79
2023/09/11 08:55:50;;;;;;;0.20;0.20;;;24.90;99.90;;;;;;5029758;28;20132;-79
2023/09/11 08:58:21;;;;;;;0.20;0.20;;;25.00;99.90;;;;;;5024957;28;20476;-80
2023/09/11 09:00:47;;;;;;;0.20;0.20;;;25.10;99.90;;;;;;5028318;28;20141;-80
2023/09/11 09:03:13;;;;;;;0.20;0.20;;;25.20;99.90;;;;;;5024852;28;20136;-79
2023/09/11 09:05:40;;;;;;;0.20;0.20;;;25.30;99.90;;;;;;5018498;28;20779;-80
2023/09/11 09:08:08;;;;;;;0.20;0.20;;;25.40;99.90;;;;;;5023741;28;20068;-80
2023/09/11 09:10:33;;;;;;;0.20;0.20;;;25.50;99.90;;;;;;5029117;28;20103;-80
2023/09/11 09:13:00;;;;;;;0.15;0.15;;;25.50;99.90;;;;;;5028453;28;20049;-81
2023/09/11 09:15:29;;;;;;;0.20;0.20;;;25.60;99.90;;;;;;5027923;28;20060;-81
2023/09/11 09:17:55;;;;;;;0.30;0.30;;;25.70;99.90;;;;;;5026141;28;20041;-81
2023/09/11 09:20:21;;;;;;;0.20;0.20;;;25.80;99.90;;;;;;5027729;28;20297;-81
2023/09/11 09:22:55;;;;;;;0.20;0.20;;;25.80;99.90;;;;;;5028529;28;20156;-81
2023/09/11 09:25:22;;;;;;;0.20;0.20;;;25.90;99.90;;;;;;5028813;28;20408;-81
2023/09/11 09:27:47;;;;;;;0.20;0.20;;;26.00;99.90;;;;;;5019494;28;20053;-80
2023/09/11 09:30:21;;;;;;;0.20;0.20;;;26.10;99.90;;;;;;5014428;28;20033;-81
2023/09/11 09:32:51;;;;;;;0.20;0.20;;;26.10;99.90;;;;;;5019833;28;20115;-80
2023/09/11 09:35:20;;;;;;;0.20;0.20;;;26.20;99.90;;;;;;5016853;28;20049;-80
2023/09/11 09:37:53;;;;;;;0.20;0.20;;;26.30;99.90;;;;;;5009644;28;20112;-80
2023/09/11 09:40:36;;;;;;;0.20;0.20;;;26.30;99.90;;;;;;5008136;28;20485;-80
2023/09/11 09:43:04;;;;;;;0.20;0.20;;;26.40;99.90;;;;;;5023009;28;20045;-83
2023/09/11 09:45:33;;;;;;;0.30;0.30;;;26.50;99.90;;;;;;5024968;28;20095;-80
2023/09/11 09:48:09;;;;;;;0.20;0.20;;;26.60;99.90;;;;;;5022236;28;20046;-81
2023/09/11 09:50:58;;;;;;;0.20;0.20;;;26.60;99.90;;;;;;5028448;28;20269;-80
2023/09/11 09:53:42;;;;;;;0.20;0.20;;;26.70;99.90;;;;;;5021097;28;20574;-81
2023/09/11 09:56:11;;;;;;;0.20;0.20;;;26.80;99.90;;;;;;5021166;28;20115;-81
2023/09/11 09:58:39;;;;;;;0.20;0.20;;;26.80;99.90;;;;;;5025547;28;20052;-80
2023/09/11 10:01:16;;;;;;;0.20;0.20;;;26.90;99.90;;;;;;5027741;28;20053;-80
2023/09/11 10:03:51;;;;;;;0.20;0.20;;;27.00;99.90;;;;;;5026650;28;20049;-80
2023/09/11 10:06:20;;;;;;;0.10;0.10;;;27.00;99.90;;;;;;5030105;28;20128;-80
2023/09/11 10:08:47;;;;;;;0.20;0.20;;;27.10;99.90;;;;;;5020104;28;20050;-80
2023/09/11 10:11:30;;;;;;;0.20;0.20;;;27.20;99.90;;;;;;5017318;28;20049;-80
2023/09/11 10:13:58;;;;;;;0.20;0.20;;;27.20;99.90;;;;;;5047263;28;20044;-79
2023/09/11 10:16:25;;;;;;;0.20;0.20;;;27.30;99.90;;;;;;5029020;28;20087;-80
2023/09/11 10:18:53;;;;;;;0.20;0.20;;;27.40;99.90;;;;;;5031878;28;20116;-80
2023/09/11 10:21:19;;;;;;;0.20;0.20;;;27.40;99.90;;;;;;5018480;28;20049;-81
2023/09/11 10:23:46;;;;;;;0.30;0.30;;;27.40;99.90;;;;;;5031874;28;20396;-80
2023/09/11 10:26:18;;;;;;;0.20;0.20;;;27.60;99.90;;;;;;5031256;28;20436;-80
2023/09/11 10:28:48;;;;;;;0.20;0.20;;;27.60;99.90;;;;;;5031800;28;20060;-80
2023/09/11 10:31:31;;;;;;;0.20;0.20;;;27.70;99.90;;;;;;5025948;28;20049;-80
2023/09/11 10:34:00;;;;;;;0.20;0.20;;;27.80;99.90;;;;;;5015516;28;20550;-81
2023/09/11 10:36:38;;;;;;;0.20;0.20;;;27.80;99.90;;;;;;5025897;28;20444;-79
2023/09/11 10:39:07;;;;;;;0.20;0.20;;;27.80;99.90;;;;;;5016638;28;20073;-81
2023/09/11 10:41:34;;;;;;;0.20;0.20;;;27.90;99.90;;;;;;5032103;28;20054;-81
2023/09/11 10:43:59;;;;;;;0.20;0.20;;;28.00;99.90;;;;;;5031222;28;20119;-82
2023/09/11 10:46:33;;;;;;;0.30;0.30;;;28.00;99.90;;;;;;5027442;28;20039;-80
2023/09/11 10:49:00;;;;;;;0.30;0.20;;;28.10;99.90;;;;;;5029797;28;20045;-79
2023/09/11 10:51:28;;;;;;;0.43;0.35;;;28.10;99.90;;;;;;5025641;28;20088;-80
2023/09/11 10:53:54;;;;;;;0.20;0.20;;;28.20;99.90;;;;;;5024220;28;20076;-79
2023/09/11 10:56:21;;;;;;;0.20;0.20;;;28.30;99.90;;;;;;5031417;28;20496;-79
2023/09/11 10:58:51;;;;;;;0.20;0.20;;;28.30;99.90;;;;;;5024919;28;20523;-79
2023/09/11 11:01:17;;;;;;;0.20;0.20;;;28.40;99.90;;;;;;5029401;28;20560;-80
2023/09/11 11:03:44;;;;;;;0.20;0.20;;;28.50;99.90;;;;;;5031175;28;20092;-79
2023/09/11 11:06:12;;;;;;;0.20;0.20;;;28.60;99.90;;;;;;5032072;28;20103;-80
2023/09/11 11:08:40;;;;;;;0.30;0.30;;;28.70;99.90;;;;;;5022608;28;20123;-80
2023/09/11 11:11:23;;;;;;;0.20;0.20;;;28.70;99.90;;;;;;5035622;28;20061;-80
2023/09/11 11:14:10;;;;;;;0.20;0.20;;;28.80;99.90;;;;;;5036849;28;20088;-79
2023/09/11 11:16:39;;;;;;;0.20;0.20;;;28.90;99.90;;;;;;5015470;28;20061;-79
2023/09/11 11:19:05;;;;;;;0.20;0.20;;;29.00;99.90;;;;;;5032835;28;20123;-80
2023/09/11 11:21:38;;;;;;;0.20;0.20;;;29.10;99.90;;;;;;5036288;28;20591;-80
2023/09/11 11:24:05;;;;;;;0.20;0.20;;;29.20;99.90;;;;;;5036607;28;20053;-80
2023/09/11 11:26:35;;;;;;;0.20;0.20;;;29.20;99.90;;;;;;5033889;28;20168;-80
2023/09/11 11:29:00;;;;;;;0.20;0.20;;;29.30;99.90;;;;;;5030477;28;20578;-81
2023/09/11 11:31:29;;;;;;;0.75;0.35;;;29.40;99.90;;;;;;5033044;28;20289;-79
2023/09/11 11:33:58;;;;;;;0.20;0.20;;;29.50;99.90;;;;;;5031277;28;20077;-81
2023/09/11 11:36:26;;;;;;;0.20;0.20;;;29.50;99.90;;;;;;5032631;28;20045;-81
2023/09/11 11:38:55;;;;;;;0.30;0.30;;;29.60;99.90;;;;;;5033163;28;20080;-80
2023/09/11 11:41:22;;;;;;;0.20;0.20;;;29.70;99.90;;;;;;5027249;28;20045;-81
2023/09/11 11:43:49;;;;;;;0.20;0.20;;;29.80;99.90;;;;;;5027719;28;20049;-79
2023/09/11 11:46:21;;;;;;;0.20;0.20;;;29.90;99.90;;;;;;5027408;28;20458;-80
2023/09/11 11:48:51;;;;;;;0.20;0.20;;;29.90;99.90;;;;;;5027343;28;20056;-79
2023/09/11 11:51:27;;;;;;;0.20;0.20;;;30.10;99.90;;;;;;5021879;28;20077;-79
2023/09/11 11:53:52;;;;;;;0.30;0.30;;;30.20;99.90;;;;;;5031761;28;20045;-80
2023/09/11 11:56:19;;;;;;;0.20;0.20;;;30.40;99.90;;;;;;5028960;28;20049;-80
2023/09/11 11:58:44;;;;;;;0.20;0.20;;;30.50;99.90;;;;;;5018990;28;20049;-77
2023/09/11 12:01:10;;;;;;;0.20;0.20;;;30.70;99.90;;;;;;5023279;28;20045;-77
2023/09/11 12:03:50;;;;;;;0.20;0.20;;;30.80;99.90;;;;;;5024659;28;21355;-77
2023/09/11 12:06:18;;;;;;;0.20;0.20;;;30.90;99.90;;;;;;5027618;28;20385;-77
2023/09/11 12:08:44;;;;;;;0.20;0.20;;;31.10;99.90;;;;;;5024534;28;20404;-78
2023/09/11 12:11:11;;;;;;;0.30;0.30;;;31.20;99.90;;;;;;5023770;28;20045;-77
2023/09/11 12:13:37;;;;;;;0.20;0.20;;;31.40;99.90;;;;;;5025654;28;20111;-77
2023/09/11 12:16:03;;;;;;;0.30;0.30;;;31.40;99.70;;;;;;5028061;28;20049;-77
2023/09/11 12:18:30;;;;;;;0.20;0.20;;;31.60;98.80;;;;;;5025377;28;20486;-77
2023/09/11 12:21:02;;;;;;;0.30;0.30;;;31.60;98.10;;;;;;5022769;28;20045;-78
2023/09/11 12:23:28;;;;;;;0.22;0.22;;;31.70;98.40;;;;;;5019101;28;20049;-77
2023/09/11 12:25:53;;;;;;;0.20;0.20;;;31.80;98.50;;;;;;5014145;28;20056;-78
2023/09/11 12:28:21;;;;;;;0.20;0.20;;;31.90;98.70;;;;;;5025607;28;20435;-77
2023/09/11 12:30:48;;;;;;;0.20;0.20;;;32.10;98.80;;;;;;5026763;28;20064;-80
2023/09/11 12:33:16;;;;;;;0.20;0.20;;;32.10;98.00;;;;;;5029529;28;20053;-79
2023/09/11 12:35:45;;;;;;;0.20;0.20;;;32.30;98.10;;;;;;5029036;28;20069;-81
2023/09/11 12:38:23;;;;;;;0.20;0.20;;;32.40;97.80;;;;;;5027798;28;20131;-79
2023/09/11 12:40:56;;;;;;;0.30;0.30;;;32.50;97.40;;;;;;5027639;28;20047;-79
2023/09/11 12:43:39;;;;;;;0.20;0.20;;;32.60;96.90;;;;;;5024642;28;20077;-79
2023/09/11 12:46:05;;;;;;;0.20;0.20;;;32.70;96.60;;;;;;5030249;28;20042;-78
2023/09/11 12:48:31;;;;;;;0.20;0.20;;;32.80;96.70;;;;;;5031126;28;20103;-79
2023/09/11 12:50:57;;;;;;;0.20;0.20;;;32.80;96.60;;;;;;5027552;28;20124;-79